Time;durP1;ratioP1;P1;durP2;ratioP2;P2;SDS_P1;SDS_P2;PMS_P1;PMS_P2;Temp;Humidity;BMP_temperature;BMP_pressure;BME280_temperature;BME280_humidity;BME280_pressure;Samples;Min_cycle;Max_cycle;Signal;HPM_P1;HPM_P2
2022/04/05 00:01:52;;;;;;;;;;;22.10;45.10;;;;;;5100229;28;19980;-42
2022/04/05 00:04:19;;;;;;;;;;;22.10;45.10;;;;;;5100029;28;19954;-42
2022/04/05 00:06:46;;;;;;;;;;;22.10;45.10;;;;;;5100461;28;20291;-42
2022/04/05 00:09:13;;;;;;;;;;;22.10;45.10;;;;;;5099656;28;19925;-42
2022/04/05 00:11:40;;;;;;;;;;;22.10;45.10;;;;;;5100125;28;20403;-43
2022/04/05 00:14:09;;;;;;;;;;;22.10;45.00;;;;;;5099932;28;19924;-45
2022/04/05 00:16:36;;;;;;;;;;;22.10;45.00;;;;;;5082714;28;20284;-44
2022/04/05 00:19:03;;;;;;;;;;;22.10;45.60;;;;;;5099877;28;19928;-42
2022/04/05 00:21:30;;;;;;;;;;;22.10;45.00;;;;;;5099770;28;19924;-42
2022/04/05 00:23:57;;;;;;;;;;;22.10;45.10;;;;;;5084931;28;19975;-42
2022/04/05 00:26:24;;;;;;;;;;;22.10;45.10;;;;;;5080017;28;19924;-43
2022/04/05 00:28:51;;;;;;;;;;;22.10;45.10;;;;;;5080556;28;20372;-42
2022/04/05 00:31:18;;;;;;;;;;;22.10;45.10;;;;;;5079990;28;19928;-42
2022/04/05 00:33:45;;;;;;;;;;;22.10;45.20;;;;;;5079653;28;19931;-42
2022/04/05 00:36:12;;;;;;;;;;;22.10;45.10;;;;;;5079821;28;19959;-42
2022/04/05 00:38:39;;;;;;;;;;;22.10;45.20;;;;;;5089316;28;19928;-42
2022/04/05 00:41:06;;;;;;;;;;;22.10;45.10;;;;;;5096250;28;19953;-43
2022/04/05 00:43:33;;;;;;;;;;;22.10;45.10;;;;;;5096450;28;19924;-43
2022/04/05 00:46:00;;;;;;;;;;;22.10;45.10;;;;;;5096954;28;19924;-42
2022/04/05 00:48:30;;;;;;;;;;;22.00;45.00;;;;;;5096231;28;19974;-43
2022/04/05 00:50:57;;;;;;;;;;;22.10;45.10;;;;;;5096707;28;20359;-42
2022/04/05 00:53:25;;;;;;;;;;;22.00;45.10;;;;;;5088136;28;20295;-42
2022/04/05 00:55:53;;;;;;;;;;;22.00;45.10;;;;;;5076195;28;19979;-41
2022/04/05 00:58:21;;;;;;;;;;;22.00;45.10;;;;;;5076382;28;19924;-44
2022/04/05 01:00:48;;;;;;;;;;;22.00;45.10;;;;;;5076270;28;19925;-42
2022/04/05 01:03:16;;;;;;;;;;;22.10;45.10;;;;;;5075840;28;20023;-42
2022/04/05 01:05:46;;;;;;;;;;;22.10;45.00;;;;;;5076092;28;20291;-41
2022/04/05 01:08:14;;;;;;;;;;;22.10;45.00;;;;;;5080617;28;19928;-42
2022/04/05 01:10:41;;;;;;;;;;;22.10;45.00;;;;;;5096164;28;19924;-42
2022/04/05 01:13:08;;;;;;;;;;;22.10;45.00;;;;;;5096045;28;20382;-42
2022/04/05 01:15:35;;;;;;;;;;;22.10;45.00;;;;;;5096054;28;19971;-42
2022/04/05 01:18:19;;;;;;;;;;;22.10;45.00;;;;;;5095946;28;20390;-43
2022/04/05 01:20:56;;;;;;;;;;;22.10;45.00;;;;;;5095513;28;20015;-43
2022/04/05 01:23:23;;;;;;;;;;;22.10;45.00;;;;;;5090512;28;19928;-42
2022/04/05 01:25:51;;;;;;;;;;;22.10;45.00;;;;;;5076729;28;19938;-42
2022/04/05 01:28:21;;;;;;;;;;;22.10;45.00;;;;;;5075505;28;19928;-42
2022/04/05 01:30:48;;;;;;;;;;;22.10;45.00;;;;;;5057849;28;19971;-42
2022/04/05 01:33:15;;;;;;;;;;;22.10;45.00;;;;;;5075468;28;20299;-41
2022/04/05 01:35:42;;;;;;;;;;;22.00;44.90;;;;;;5075437;28;19924;-42
2022/04/05 01:38:10;;;;;;;;;;;22.10;45.00;;;;;;5076329;28;19929;-42
2022/04/05 01:40:38;;;;;;;;;;;22.10;45.00;;;;;;5095447;28;19924;-42
2022/04/05 01:43:05;;;;;;;;;;;22.10;45.00;;;;;;5095296;28;19992;-42
2022/04/05 01:45:32;;;;;;;;;;;22.10;45.00;;;;;;5095618;28;20287;-42
2022/04/05 01:48:00;;;;;;;;;;;22.00;45.00;;;;;;5095314;28;20379;-42
2022/04/05 01:50:27;;;;;;;;;;;22.10;45.00;;;;;;5094586;28;19974;-43
2022/04/05 01:52:54;;;;;;;;;;;22.10;45.00;;;;;;5094734;28;19924;-42
2022/04/05 01:55:20;;;;;;;;;;;22.10;45.00;;;;;;5093867;28;19978;-43
2022/04/05 01:57:47;;;;;;;;;;;22.10;45.00;;;;;;5095227;28;19973;-42
2022/04/05 02:00:14;;;;;;;;;;;22.10;45.00;;;;;;5095054;28;19986;-42
2022/04/05 02:02:42;;;;;;;;;;;22.00;44.90;;;;;;5095134;28;19924;-46
2022/04/05 02:05:12;;;;;;;;;;;22.00;44.90;;;;;;5095063;28;19982;-42
2022/04/05 02:07:39;;;;;;;;;;;22.00;44.90;;;;;;5094826;28;19974;-42
2022/04/05 02:10:06;;;;;;;;;;;22.10;45.00;;;;;;5094440;28;19977;-42
2022/04/05 02:12:33;;;;;;;;;;;22.10;45.00;;;;;;5095264;28;19924;-42
2022/04/05 02:15:00;;;;;;;;;;;22.10;44.90;;;;;;5094914;28;20417;-45
2022/04/05 02:17:27;;;;;;;;;;;22.10;44.90;;;;;;5094893;28;19969;-44
2022/04/05 02:19:56;;;;;;;;;;;22.10;44.90;;;;;;5094777;28;19978;-43
2022/04/05 02:22:24;;;;;;;;;;;22.00;44.90;;;;;;5094682;28;19924;-43
2022/04/05 02:24:52;;;;;;;;;;;22.10;45.00;;;;;;5082597;28;20015;-42
2022/04/05 02:27:24;;;;;;;;;;;22.00;44.90;;;;;;5074461;28;19924;-42
2022/04/05 02:29:51;;;;;;;;;;;22.10;45.00;;;;;;5074075;28;20376;-41
2022/04/05 02:32:18;;;;;;;;;;;22.10;44.90;;;;;;5074292;28;20437;-42
2022/04/05 02:34:45;;;;;;;;;;;22.00;44.80;;;;;;5056911;28;19997;-42
2022/04/05 02:37:12;;;;;;;;;;;22.00;44.90;;;;;;5074218;28;19951;-43
2022/04/05 02:39:38;;;;;;;;;;;22.00;44.90;;;;;;5082373;28;19962;-42
2022/04/05 02:42:05;;;;;;;;;;;22.00;44.90;;;;;;5094542;28;19967;-45
2022/04/05 02:44:34;;;;;;;;;;;22.00;44.90;;;;;;5094360;28;19978;-42
2022/04/05 02:47:02;;;;;;;;;;;22.00;45.50;;;;;;5094596;28;20298;-45
2022/04/05 02:49:30;;;;;;;;;;;22.00;44.90;;;;;;5094455;28;19928;-42
2022/04/05 02:51:56;;;;;;;;;;;22.00;44.90;;;;;;5094109;28;19975;-44
2022/04/05 02:54:23;;;;;;;;;;;22.00;44.90;;;;;;5094259;28;20331;-42
2022/04/05 02:56:50;;;;;;;;;;;22.00;44.90;;;;;;5076479;28;19928;-41
2022/04/05 02:59:18;;;;;;;;;;;22.00;44.90;;;;;;5094203;28;19924;-42
2022/04/05 03:01:44;;;;;;;;;;;22.00;44.90;;;;;;5093866;28;20410;-42
2022/04/05 03:04:12;;;;;;;;;;;22.10;44.90;;;;;;5076387;28;19924;-42
2022/04/05 03:06:39;;;;;;;;;;;22.00;44.80;;;;;;5094365;28;19949;-42
2022/04/05 03:09:06;;;;;;;;;;;22.00;44.80;;;;;;5092675;28;19970;-43
2022/04/05 03:11:33;;;;;;;;;;;22.00;44.90;;;;;;5093773;28;19979;-42
2022/04/05 03:14:00;;;;;;;;;;;22.00;44.90;;;;;;5094273;28;20015;-42
2022/04/05 03:16:27;;;;;;;;;;;22.00;44.80;;;;;;5094200;28;19931;-42
2022/04/05 03:18:54;;;;;;;;;;;22.00;44.80;;;;;;5076001;28;20446;-42
2022/04/05 03:21:21;;;;;;;;;;;22.00;44.80;;;;;;5093411;28;19985;-45
2022/04/05 03:23:48;;;;;;;;;;;22.00;44.80;;;;;;5093608;28;19924;-42
2022/04/05 03:26:15;;;;;;;;;;;22.00;44.80;;;;;;5093199;28;19928;-42
2022/04/05 03:28:42;;;;;;;;;;;22.00;44.80;;;;;;5093697;28;20383;-45
2022/04/05 03:31:09;;;;;;;;;;;22.00;44.80;;;;;;5094076;28;20022;-42
2022/04/05 03:33:36;;;;;;;;;;;22.00;44.80;;;;;;5093891;28;19924;-41
2022/04/05 03:36:04;;;;;;;;;;;22.00;44.80;;;;;;5075856;28;19928;-43
2022/04/05 03:38:31;;;;;;;;;;;22.00;44.80;;;;;;5093996;28;20023;-43
2022/04/05 03:40:58;;;;;;;;;;;22.00;44.80;;;;;;5092764;28;19924;-42
2022/04/05 03:43:25;;;;;;;;;;;22.00;44.80;;;;;;5093799;28;19925;-42
2022/04/05 03:45:53;;;;;;;;;;;22.00;44.80;;;;;;5093628;28;19938;-46
2022/04/05 03:48:20;;;;;;;;;;;22.00;44.80;;;;;;5093762;28;19934;-42
2022/04/05 03:50:47;;;;;;;;;;;22.00;44.80;;;;;;5093461;28;19928;-42
2022/04/05 03:53:14;;;;;;;;;;;22.00;44.80;;;;;;5093718;28;19924;-43
2022/04/05 03:55:42;;;;;;;;;;;22.00;44.80;;;;;;5092980;28;19959;-42
2022/04/05 03:58:12;;;;;;;;;;;22.00;44.70;;;;;;5093814;28;19997;-42
2022/04/05 04:00:39;;;;;;;;;;;22.00;44.80;;;;;;5093707;28;20019;-45
2022/04/05 04:03:06;;;;;;;;;;;22.00;44.80;;;;;;5093485;28;19931;-44
2022/04/05 04:05:33;;;;;;;;;;;22.10;44.90;;;;;;5093536;28;19985;-42
2022/04/05 04:08:00;;;;;;;;;;;22.00;44.80;;;;;;5093683;28;19928;-42
2022/04/05 04:10:27;;;;;;;;;;;22.00;44.80;;;;;;5092796;28;19985;-45
2022/04/05 04:12:54;;;;;;;;;;;22.00;45.40;;;;;;5093387;28;19971;-43
2022/04/05 04:15:21;;;;;;;;;;;22.10;44.80;;;;;;5095657;28;19970;-42
2022/04/05 04:17:48;;;;;;;;;;;22.10;44.80;;;;;;5097088;28;19924;-44
2022/04/05 04:20:15;;;;;;;;;;;22.00;44.70;;;;;;5097029;28;19924;-43
2022/04/05 04:22:41;;;;;;;;;;;22.00;44.80;;;;;;5096907;28;19975;-42
2022/04/05 04:25:09;;;;;;;;;;;22.00;44.80;;;;;;5093321;28;20483;-42
2022/04/05 04:27:36;;;;;;;;;;;22.00;44.80;;;;;;5076988;28;19987;-42
2022/04/05 04:30:04;;;;;;;;;;;22.00;44.70;;;;;;5076789;28;20338;-44
2022/04/05 04:32:31;;;;;;;;;;;22.00;44.70;;;;;;5076947;28;19979;-42
2022/04/05 04:34:58;;;;;;;;;;;22.00;44.70;;;;;;5076936;28;19974;-43
2022/04/05 04:37:25;;;;;;;;;;;22.00;44.70;;;;;;5076541;28;19931;-43
2022/04/05 04:39:52;;;;;;;;;;;22.10;44.80;;;;;;5076642;28;20333;-42
2022/04/05 04:42:19;;;;;;;;;;;22.00;44.70;;;;;;5095765;28;20010;-43
2022/04/05 04:44:46;;;;;;;;;;;22.00;44.70;;;;;;5078811;28;20023;-43
2022/04/05 04:47:13;;;;;;;;;;;22.00;44.70;;;;;;5096519;28;19979;-43
2022/04/05 04:49:40;;;;;;;;;;;22.10;44.70;;;;;;5096735;28;19928;-42
2022/04/05 04:52:07;;;;;;;;;;;22.00;44.70;;;;;;5078826;28;19928;-42
2022/04/05 04:54:34;;;;;;;;;;;22.00;44.70;;;;;;5096784;28;20007;-42
2022/04/05 04:57:00;;;;;;;;;;;22.10;44.70;;;;;;5080239;28;19936;-43
2022/04/05 04:59:28;;;;;;;;;;;22.10;44.70;;;;;;5077000;28;20358;-42
2022/04/05 05:01:54;;;;;;;;;;;22.10;44.70;;;;;;5075973;28;19924;-48
2022/04/05 05:04:21;;;;;;;;;;;22.10;44.70;;;;;;5076326;28;19924;-44
2022/04/05 05:06:51;;;;;;;;;;;22.00;44.70;;;;;;5076002;28;19924;-42
2022/04/05 05:09:18;;;;;;;;;;;22.10;44.70;;;;;;5075740;28;19959;-43
2022/04/05 05:11:45;;;;;;;;;;;22.10;44.70;;;;;;5087261;28;19924;-43
2022/04/05 05:14:12;;;;;;;;;;;22.10;44.70;;;;;;5096088;28;19924;-42
2022/04/05 05:16:39;;;;;;;;;;;22.10;44.70;;;;;;5095801;28;19924;-45
2022/04/05 05:19:06;;;;;;;;;;;22.10;44.70;;;;;;5078299;28;20326;-42
2022/04/05 05:21:33;;;;;;;;;;;22.10;44.70;;;;;;5095643;28;19928;-43
2022/04/05 05:24:00;;;;;;;;;;;22.10;44.70;;;;;;5095821;28;20284;-46
2022/04/05 05:26:27;;;;;;;;;;;22.10;44.70;;;;;;5094959;28;19931;-44
2022/04/05 05:28:54;;;;;;;;;;;22.10;45.30;;;;;;5096136;28;19924;-42
2022/04/05 05:31:20;;;;;;;;;;;22.10;44.70;;;;;;5095784;28;19960;-43
2022/04/05 05:33:48;;;;;;;;;;;22.10;44.70;;;;;;5095701;28;19924;-44
2022/04/05 05:36:14;;;;;;;;;;;22.10;44.60;;;;;;5095971;28;19975;-46
2022/04/05 05:38:41;;;;;;;;;;;22.10;44.60;;;;;;5078005;28;19928;-44
2022/04/05 05:41:08;;;;;;;;;;;22.10;44.60;;;;;;5091073;28;19925;-44
2022/04/05 05:43:37;;;;;;;;;;;22.10;44.60;;;;;;5075071;28;19928;-50
2022/04/05 05:46:06;;;;;;;;;;;22.10;44.50;;;;;;5075288;28;19968;-46
2022/04/05 05:48:34;;;;;;;;;;;22.10;44.50;;;;;;5075397;28;20352;-44
2022/04/05 05:51:01;;;;;;;;;;;22.10;44.50;;;;;;5074984;28;19974;-42
2022/04/05 05:53:28;;;;;;;;;;;22.10;44.50;;;;;;5041256;28;19924;-42
2022/04/05 05:55:54;;;;;;;;;;;22.10;44.50;;;;;;5074757;28;19947;-43
2022/04/05 05:58:21;;;;;;;;;;;22.20;44.60;;;;;;5074956;28;19932;-45
2022/04/05 06:00:48;;;;;;;;;;;22.20;44.50;;;;;;5075119;28;20047;-45
2022/04/05 06:03:17;;;;;;;;;;;22.20;44.50;;;;;;5075212;28;20319;-45
2022/04/05 06:05:46;;;;;;;;;;;22.20;44.50;;;;;;5074879;28;20411;-45
2022/04/05 06:08:17;;;;;;;;;;;22.20;44.50;;;;;;5074765;28;20376;-48
2022/04/05 06:10:44;;;;;;;;;;;22.20;44.40;;;;;;5074750;28;19925;-45
2022/04/05 06:13:12;;;;;;;;;;;22.20;44.40;;;;;;5092854;28;20412;-48
2022/04/05 06:15:39;;;;;;;;;;;22.20;44.40;;;;;;5093978;28;19963;-50
2022/04/05 06:18:06;;;;;;;;;;;22.20;44.30;;;;;;5094616;28;19924;-47
2022/04/05 06:20:33;;;;;;;;;;;22.20;44.30;;;;;;5094347;28;19974;-51
2022/04/05 06:23:01;;;;;;;;;;;22.30;44.30;;;;;;5095098;28;20280;-49
2022/04/05 06:25:30;;;;;;;;;;;22.20;44.20;;;;;;5095061;28;19950;-47
2022/04/05 06:28:01;;;;;;;;;;;22.30;44.40;;;;;;5093713;28;20426;-44
2022/04/05 06:30:28;;;;;;;;;;;22.30;44.30;;;;;;5094530;28;19931;-46
2022/04/05 06:33:12;;;;;;;;;;;22.30;44.30;;;;;;5094613;28;19986;-47
2022/04/05 06:35:44;;;;;;;;;;;22.20;44.20;;;;;;5094842;28;19931;-42
2022/04/05 06:38:11;;;;;;;;;;;22.30;44.30;;;;;;5093798;28;20337;-45
2022/04/05 06:40:38;;;;;;;;;;;22.30;44.20;;;;;;5094067;28;20388;-42
2022/04/05 06:43:05;;;;;;;;;;;22.30;44.20;;;;;;5093534;28;19924;-45
2022/04/05 06:45:35;;;;;;;;;;;22.30;44.20;;;;;;5076474;28;19977;-45
2022/04/05 06:48:03;;;;;;;;;;;22.30;44.20;;;;;;5094182;28;20117;-42
2022/04/05 06:50:30;;;;;;;;;;;22.30;44.20;;;;;;5094432;28;19928;-43
2022/04/05 06:52:58;;;;;;;;;;;22.30;44.20;;;;;;5094550;28;19950;-44
2022/04/05 06:55:25;;;;;;;;;;;22.30;44.20;;;;;;5094324;28;19924;-41
2022/04/05 06:57:53;;;;;;;;;;;22.40;44.20;;;;;;5093172;28;20399;-42
2022/04/05 07:00:22;;;;;;;;;;;22.40;44.20;;;;;;5094115;28;19924;-42
2022/04/05 07:02:49;;;;;;;;;;;22.40;44.10;;;;;;5094344;28;19924;-42
2022/04/05 07:05:17;;;;;;;;;;;22.40;44.10;;;;;;5094091;28;19928;-44
2022/04/05 07:07:44;;;;;;;;;;;22.40;44.00;;;;;;5094189;28;20323;-41
2022/04/05 07:10:14;;;;;;;;;;;22.40;44.00;;;;;;5094312;28;20295;-44
2022/04/05 07:12:42;;;;;;;;;;;22.40;44.00;;;;;;5093133;28;20295;-42
2022/04/05 07:15:10;;;;;;;;;;;22.40;44.00;;;;;;5094203;28;20324;-42
2022/04/05 07:17:38;;;;;;;;;;;22.40;43.90;;;;;;5094113;28;19977;-42
2022/04/05 07:20:25;;;;;;;;;;;22.40;43.90;;;;;;5093860;28;19924;-44
2022/04/05 07:22:51;;;;;;;;;;;22.40;43.90;;;;;;5075892;28;19930;-41
2022/04/05 07:25:22;;;;;;;;;;;22.50;43.90;;;;;;5075973;28;20019;-44
2022/04/05 07:27:51;;;;;;;;;;;22.50;43.90;;;;;;5092921;28;19931;-41
2022/04/05 07:30:19;;;;;;;;;;;22.50;43.90;;;;;;5093582;28;20375;-41
2022/04/05 07:32:46;;;;;;;;;;;22.50;43.80;;;;;;5094095;28;19955;-43
2022/04/05 07:35:15;;;;;;;;;;;22.50;43.80;;;;;;5093712;28;20406;-44
2022/04/05 07:37:42;;;;;;;;;;;22.50;43.80;;;;;;5093757;28;19924;-44
2022/04/05 07:40:10;;;;;;;;;;;22.50;43.80;;;;;;5093934;28;19978;-41
2022/04/05 07:42:39;;;;;;;;;;;22.50;43.80;;;;;;5092765;28;20384;-45
2022/04/05 07:45:07;;;;;;;;;;;22.50;43.80;;;;;;5093385;28;19954;-42
2022/04/05 07:47:35;;;;;;;;;;;22.50;43.70;;;;;;5093350;28;19925;-44
2022/04/05 07:50:03;;;;;;;;;;;22.50;43.80;;;;;;5096860;28;19982;-44
2022/04/05 07:52:30;;;;;;;;;;;22.50;43.70;;;;;;5097736;28;19924;-41
2022/04/05 07:54:57;;;;;;;;;;;22.50;43.70;;;;;;5097866;28;19949;-44
2022/04/05 07:57:24;;;;;;;;;;;22.50;43.70;;;;;;5094084;28;19966;-44
2022/04/05 07:59:51;;;;;;;;;;;22.50;43.70;;;;;;5059424;28;20421;-42
2022/04/05 08:02:19;;;;;;;;;;;22.50;43.70;;;;;;5076921;28;19980;-42
2022/04/05 08:04:55;;;;;;;;;;;22.50;43.60;;;;;;5077084;28;19925;-48
2022/04/05 08:07:22;;;;;;;;;;;22.60;43.70;;;;;;5076971;28;19947;-47
2022/04/05 08:09:49;;;;;;;;;;;22.60;43.70;;;;;;5076759;28;19970;-50
2022/04/05 08:12:16;;;;;;;;;;;22.60;43.60;;;;;;5059072;28;19974;-49
2022/04/05 08:14:43;;;;;;;;;;;22.60;43.60;;;;;;5077137;28;19929;-43
2022/04/05 08:17:10;;;;;;;;;;;22.70;43.60;;;;;;5077056;28;19967;-45
2022/04/05 08:19:37;;;;;;;;;;;22.70;43.60;;;;;;5076585;28;19929;-48
2022/04/05 08:22:04;;;;;;;;;;;22.70;43.50;;;;;;5076566;28;19925;-45
2022/04/05 08:24:31;;;;;;;;;;;22.70;43.40;;;;;;5076722;28;19928;-44
2022/04/05 08:26:58;;;;;;;;;;;22.70;43.40;;;;;;5077029;28;19924;-45
2022/04/05 08:29:25;;;;;;;;;;;22.80;43.40;;;;;;5093296;28;19975;-47
2022/04/05 08:31:52;;;;;;;;;;;22.80;43.30;;;;;;5097258;28;20295;-44
2022/04/05 08:34:19;;;;;;;;;;;22.80;43.20;;;;;;5096673;28;19924;-42
2022/04/05 08:36:47;;;;;;;;;;;22.80;43.20;;;;;;5097038;28;20296;-47
2022/04/05 08:39:14;;;;;;;;;;;22.80;43.10;;;;;;5097080;28;19924;-42
2022/04/05 08:41:43;;;;;;;;;;;22.90;43.10;;;;;;5096900;28;20272;-42
2022/04/05 08:44:11;;;;;;;;;;;22.90;43.10;;;;;;5095941;28;19924;-43
2022/04/05 08:46:40;;;;;;;;;;;23.00;43.10;;;;;;5096538;28;19946;-45
2022/04/05 08:49:07;;;;;;;;;;;23.00;43.10;;;;;;5096540;28;19928;-43
2022/04/05 08:51:34;;;;;;;;;;;23.00;43.00;;;;;;5096603;28;19951;-42
2022/04/05 08:54:02;;;;;;;;;;;23.00;43.00;;;;;;5078581;28;19928;-45
2022/04/05 08:56:30;;;;;;;;;;;23.00;42.90;;;;;;5096391;28;20504;-42
2022/04/05 08:58:57;;;;;;;;;;;23.10;42.90;;;;;;5095533;28;19924;-42
2022/04/05 09:01:29;;;;;;;;;;;23.10;42.80;;;;;;5095502;28;19931;-42
2022/04/05 09:03:56;;;;;;;;;;;23.10;42.80;;;;;;5096478;28;19927;-47
2022/04/05 09:06:31;;;;;;;;;;;23.10;42.70;;;;;;5096542;28;19973;-45
2022/04/05 09:09:11;;;;;;;;;;;23.20;42.70;;;;;;5096201;28;19924;-42
2022/04/05 09:11:44;;;;;;;;;;;23.30;42.60;;;;;;5078285;28;19946;-42
2022/04/05 09:14:25;;;;;;;;;;;23.30;42.50;;;;;;5095176;28;19932;-44
2022/04/05 09:17:05;;;;;;;;;;;23.30;42.50;;;;;;5096254;28;20010;-43
2022/04/05 09:19:42;;;;;;;;;;;23.30;42.40;;;;;;5095788;28;19931;-42
2022/04/05 09:22:09;;;;;;;;;;;23.40;42.40;;;;;;5095744;28;19924;-44
2022/04/05 09:24:38;;;;;;;;;;;23.40;42.40;;;;;;5096205;28;19924;-43
2022/04/05 09:27:06;;;;;;;;;;;23.40;42.40;;;;;;5094866;28;19924;-44
2022/04/05 09:29:51;;;;;;;;;;;23.40;42.30;;;;;;5094243;28;19924;-41
2022/04/05 09:32:34;;;;;;;;;;;23.50;42.40;;;;;;5096052;28;20022;-43
2022/04/05 09:35:01;;;;;;;;;;;23.50;42.30;;;;;;5095656;28;19977;-43
2022/04/05 09:37:28;;;;;;;;;;;23.50;42.20;;;;;;5095463;28;19924;-42
2022/04/05 09:40:14;;;;;;;;;;;23.50;42.20;;;;;;5095946;28;20337;-48
2022/04/05 09:43:00;;;;;;;;;;;23.50;42.20;;;;;;5095454;28;19969;-43
2022/04/05 09:45:43;;;;;;;;;;;23.50;42.20;;;;;;5094858;28;19927;-45
2022/04/05 09:48:11;;;;;;;;;;;23.50;42.20;;;;;;5095230;28;20031;-41
2022/04/05 09:50:57;;;;;;;;;;;23.50;42.10;;;;;;5095258;28;19924;-44
2022/04/05 09:53:25;;;;;;;;;;;23.60;42.20;;;;;;5095593;28;19924;-49
2022/04/05 09:56:06;;;;;;;;;;;23.60;42.20;;;;;;5095201;28;20395;-42
2022/04/05 09:58:33;;;;;;;;;;;23.60;42.10;;;;;;5094461;28;19924;-43
2022/04/05 10:01:08;;;;;;;;;;;23.60;42.10;;;;;;5077313;28;19924;-41
2022/04/05 10:03:35;;;;;;;;;;;23.60;42.10;;;;;;5095317;28;19967;-41
2022/04/05 10:06:03;;;;;;;;;;;23.60;42.10;;;;;;5095298;28;19924;-41
2022/04/05 10:08:31;;;;;;;;;;;23.60;42.00;;;;;;5094965;28;19932;-42
2022/04/05 10:10:58;;;;;;;;;;;23.60;42.00;;;;;;5095250;28;19924;-42
2022/04/05 10:13:26;;;;;;;;;;;23.60;42.10;;;;;;5093112;28;19931;-47
2022/04/05 10:15:54;;;;;;;;;;;23.60;42.10;;;;;;5077135;28;20018;-43
2022/04/05 10:18:21;;;;;;;;;;;23.60;42.10;;;;;;5094714;28;19973;-42
2022/04/05 10:20:49;;;;;;;;;;;23.60;42.10;;;;;;5094533;28;19970;-42
2022/04/05 10:23:20;;;;;;;;;;;23.60;42.10;;;;;;5094907;28;20091;-42
2022/04/05 10:25:52;;;;;;;;;;;23.60;42.10;;;;;;5094800;28;20011;-42
2022/04/05 10:28:24;;;;;;;;;;;23.60;42.10;;;;;;5094876;28;19924;-41
2022/04/05 10:31:03;;;;;;;;;;;23.70;42.20;;;;;;5094072;28;19924;-42
2022/04/05 10:33:30;;;;;;;;;;;23.70;42.20;;;;;;5094633;28;19973;-43
2022/04/05 10:35:58;;;;;;;;;;;23.70;42.20;;;;;;5094354;28;19950;-45
2022/04/05 10:38:27;;;;;;;;;;;23.70;42.20;;;;;;5094802;28;19977;-42
2022/04/05 10:41:13;;;;;;;;;;;23.70;42.10;;;;;;5094755;28;19924;-41
2022/04/05 10:43:45;;;;;;;;;;;23.70;42.20;;;;;;5076741;28;19960;-42
2022/04/05 10:46:12;;;;;;;;;;;23.70;42.10;;;;;;5093969;28;20411;-41
2022/04/05 10:49:07;;;;;;;;;;;23.70;42.00;;;;;;5094283;28;19931;-42
2022/04/05 10:51:53;;;;;;;;;;;23.70;42.00;;;;;;5074132;28;19924;-42
2022/04/05 10:54:20;;;;;;;;;;;23.70;42.00;;;;;;5094383;28;19977;-41
2022/04/05 10:57:05;;;;;;;;;;;23.70;42.00;;;;;;5094116;28;19924;-41
2022/04/05 10:59:46;;;;;;;;;;;23.80;42.00;;;;;;5088359;28;20277;-42
2022/04/05 11:02:27;;;;;;;;;;;23.80;42.00;;;;;;5073523;28;20434;-41
2022/04/05 11:05:01;;;;;;;;;;;23.80;42.00;;;;;;5074139;28;19970;-41
2022/04/05 11:07:48;;;;;;;;;;;23.80;42.10;;;;;;5074002;28;19924;-42
2022/04/05 11:10:18;;;;;;;;;;;23.70;42.10;;;;;;5073778;28;20347;-42
2022/04/05 11:12:45;;;;;;;;;;;23.70;42.00;;;;;;5073629;28;19924;-42
2022/04/05 11:15:15;;;;;;;;;;;23.70;42.10;;;;;;5082498;28;19928;-44
2022/04/05 11:17:42;;;;;;;;;;;23.70;42.10;;;;;;5093964;28;19964;-41
2022/04/05 11:20:10;;;;;;;;;;;23.70;42.10;;;;;;5093800;28;19924;-41
2022/04/05 11:22:38;;;;;;;;;;;23.70;42.10;;;;;;5093840;28;20334;-42
2022/04/05 11:25:05;;;;;;;;;;;23.70;42.10;;;;;;5093537;28;19924;-41
2022/04/05 11:27:35;;;;;;;;;;;23.70;42.10;;;;;;5075861;28;19935;-41
2022/04/05 11:30:27;;;;;;;;;;;23.70;42.10;;;;;;5092610;28;19950;-44
2022/04/05 11:33:15;;;;;;;;;;;23.70;42.20;;;;;;5093580;28;19924;-42
2022/04/05 11:35:58;;;;;;;;;;;23.70;42.20;;;;;;5093567;28;19977;-42
2022/04/05 11:38:28;;;;;;;;;;;23.70;42.20;;;;;;5075843;28;19924;-44
2022/04/05 11:41:04;;;;;;;;;;;23.70;42.20;;;;;;5093776;28;19924;-41
2022/04/05 11:43:32;;;;;;;;;;;23.70;42.20;;;;;;5093462;28;19978;-45
2022/04/05 11:46:14;;;;;;;;;;;23.70;42.20;;;;;;5093126;28;19953;-42
2022/04/05 11:48:47;;;;;;;;;;;23.70;42.20;;;;;;5093767;28;19924;-42
2022/04/05 11:51:15;;;;;;;;;;;23.80;42.30;;;;;;5093187;28;19924;-44
2022/04/05 11:53:43;;;;;;;;;;;23.80;42.20;;;;;;5093713;28;19928;-47
2022/04/05 11:56:11;;;;;;;;;;;23.80;42.20;;;;;;5093751;28;19924;-42
2022/04/05 11:58:43;;;;;;;;;;;23.80;42.20;;;;;;5093353;28;19928;-42
2022/04/05 12:01:11;;;;;;;;;;;23.80;42.10;;;;;;5078924;28;19983;-41
2022/04/05 12:03:44;;;;;;;;;;;23.80;42.10;;;;;;5073060;28;19924;-47
2022/04/05 12:06:12;;;;;;;;;;;23.80;42.10;;;;;;5073189;28;19924;-42
2022/04/05 12:08:39;;;;;;;;;;;23.80;42.10;;;;;;5073013;28;19924;-44
2022/04/05 12:11:06;;;;;;;;;;;23.90;42.10;;;;;;5073950;28;19994;-42
2022/04/05 12:13:34;;;;;;;;;;;23.90;42.10;;;;;;5073112;28;20346;-45
2022/04/05 12:16:03;;;;;;;;;;;23.90;42.10;;;;;;5083907;28;19924;-41
2022/04/05 12:18:30;;;;;;;;;;;23.90;42.00;;;;;;5093602;28;20388;-47
2022/04/05 12:20:59;;;;;;;;;;;23.90;42.00;;;;;;5093005;28;20299;-44
2022/04/05 12:23:30;;;;;;;;;;;23.90;42.00;;;;;;5093538;28;19924;-42
2022/04/05 12:26:08;;;;;;;;;;;23.90;42.00;;;;;;5093493;28;19931;-42
2022/04/05 12:28:37;;;;;;;;;;;23.90;42.10;;;;;;5093490;28;19956;-41
2022/04/05 12:31:08;;;;;;;;;;;23.90;42.20;;;;;;5092244;28;19924;-41
2022/04/05 12:33:36;;;;;;;;;;;23.90;42.20;;;;;;5092993;28;20379;-40
2022/04/05 12:36:04;;;;;;;;;;;23.80;42.20;;;;;;5095106;28;20317;-45
2022/04/05 12:38:31;;;;;;;;;;;23.80;42.20;;;;;;5097111;28;20013;-42
2022/04/05 12:40:58;;;;;;;;;;;23.80;42.30;;;;;;5096806;28;19977;-42
2022/04/05 12:43:25;;;;;;;;;;;23.80;42.40;;;;;;5096992;28;19985;-42
2022/04/05 12:45:54;;;;;;;;;;;23.70;42.30;;;;;;5088857;28;19928;-46
2022/04/05 12:48:22;;;;;;;;;;;23.70;42.40;;;;;;5076104;28;19928;-43
2022/04/05 12:50:50;;;;;;;;;;;23.70;42.40;;;;;;5076483;28;19925;-42
2022/04/05 12:53:25;;;;;;;;;;;23.70;42.40;;;;;;5076291;28;19971;-43
2022/04/05 12:55:59;;;;;;;;;;;23.70;42.50;;;;;;5077056;28;19943;-43
2022/04/05 12:58:34;;;;;;;;;;;23.70;42.50;;;;;;5076322;28;19978;-44
2022/04/05 13:01:01;;;;;;;;;;;23.70;42.60;;;;;;5082955;28;20264;-42
2022/04/05 13:03:34;;;;;;;;;;;23.70;42.60;;;;;;5096252;28;19973;-42
2022/04/05 13:06:20;;;;;;;;;;;23.60;43.20;;;;;;5078697;28;20023;-43
2022/04/05 13:08:47;;;;;;;;;;;23.60;42.60;;;;;;5096043;28;19924;-42
2022/04/05 13:11:29;;;;;;;;;;;23.60;42.60;;;;;;5096480;28;20002;-42
2022/04/05 13:14:02;;;;;;;;;;;23.60;42.60;;;;;;5097058;28;19925;-42
2022/04/05 13:16:29;;;;;;;;;;;23.60;42.70;;;;;;5095001;28;20014;-44
2022/04/05 13:19:10;;;;;;;;;;;23.60;42.70;;;;;;5097231;28;19970;-42
2022/04/05 13:22:03;;;;;;;;;;;23.60;42.80;;;;;;5095701;28;20410;-44
2022/04/05 13:24:41;;;;;;;;;;;23.60;42.80;;;;;;5093021;28;20345;-44
2022/04/05 13:27:08;;;;;;;;;;;23.60;42.80;;;;;;5096216;28;19924;-42
2022/04/05 13:29:36;;;;;;;;;;;23.60;42.80;;;;;;5095813;28;19931;-44
2022/04/05 13:32:04;;;;;;;;;;;23.50;42.80;;;;;;5082992;28;19928;-48
2022/04/05 13:34:35;;;;;;;;;;;23.60;42.90;;;;;;5075490;28;19925;-44
2022/04/05 13:37:02;;;;;;;;;;;23.50;42.80;;;;;;5075413;28;19925;-42
2022/04/05 13:39:33;;;;;;;;;;;23.50;42.80;;;;;;5075791;28;20301;-42
2022/04/05 13:42:02;;;;;;;;;;;23.50;42.80;;;;;;5075454;28;19975;-43
2022/04/05 13:44:29;;;;;;;;;;;23.60;43.00;;;;;;5075258;28;19924;-42
2022/04/05 13:46:56;;;;;;;;;;;23.50;42.90;;;;;;5085048;28;19946;-45
2022/04/05 13:49:23;;;;;;;;;;;23.50;42.90;;;;;;5095475;28;19943;-42
2022/04/05 13:51:51;;;;;;;;;;;23.50;43.00;;;;;;5095254;28;20403;-45
2022/04/05 13:54:39;;;;;;;;;;;23.50;43.00;;;;;;5095271;28;19977;-43
2022/04/05 13:57:07;;;;;;;;;;;23.50;43.00;;;;;;5095333;28;19931;-42
2022/04/05 13:59:34;;;;;;;;;;;23.50;43.00;;;;;;5095154;28;19924;-45
2022/04/05 14:02:01;;;;;;;;;;;23.50;43.00;;;;;;5094797;28;20288;-42
2022/04/05 14:04:28;;;;;;;;;;;23.50;43.00;;;;;;5060757;28;20424;-42
2022/04/05 14:06:55;;;;;;;;;;;23.50;43.00;;;;;;5095175;28;19969;-43
2022/04/05 14:09:22;;;;;;;;;;;23.50;43.00;;;;;;5077199;28;19924;-42
2022/04/05 14:11:49;;;;;;;;;;;23.50;43.00;;;;;;5095819;28;19924;-43
2022/04/05 14:14:16;;;;;;;;;;;23.50;43.00;;;;;;5095014;28;19928;-44
2022/04/05 14:16:43;;;;;;;;;;;23.50;42.90;;;;;;5094311;28;19924;-48
2022/04/05 14:19:10;;;;;;;;;;;23.50;42.90;;;;;;5094886;28;19924;-44
2022/04/05 14:21:37;;;;;;;;;;;23.60;43.00;;;;;;5076603;28;19924;-45
2022/04/05 14:24:04;;;;;;;;;;;23.50;42.90;;;;;;5094721;28;19927;-44
2022/04/05 14:26:32;;;;;;;;;;;23.60;43.00;;;;;;5094748;28;19924;-43
2022/04/05 14:28:59;;;;;;;;;;;23.60;43.00;;;;;;5076732;28;19924;-46